sensor_id;sensor_type;location;lat;lon;timestamp;P1;durP1;ratioP1;P2;durP2;ratioP2
30096;SDS011;16915;51.466;3.610;2023-02-05T00:01:51;2.42;;;1.55;;
30096;SDS011;16915;51.466;3.610;2023-02-05T00:04:17;5.53;;;1.55;;
30096;SDS011;16915;51.466;3.610;2023-02-05T00:06:43;3.10;;;1.85;;
30096;SDS011;16915;51.466;3.610;2023-02-05T00:09:09;3.80;;;1.30;;
30096;SDS011;16915;51.466;3.610;2023-02-05T00:11:35;3.00;;;1.02;;
30096;SDS011;16915;51.466;3.610;2023-02-05T00:14:00;4.15;;;1.25;;
30096;SDS011;16915;51.466;3.610;2023-02-05T00:16:26;3.33;;;1.08;;
30096;SDS011;16915;51.466;3.610;2023-02-05T00:18:52;2.78;;;0.80;;
30096;SDS011;16915;51.466;3.610;2023-02-05T00:21:18;1.65;;;0.70;;
30096;SDS011;16915;51.466;3.610;2023-02-05T00:23:45;3.13;;;1.02;;
30096;SDS011;16915;51.466;3.610;2023-02-05T00:26:12;1.77;;;0.93;;
30096;SDS011;16915;51.466;3.610;2023-02-05T00:28:38;3.53;;;1.08;;
30096;SDS011;16915;51.466;3.610;2023-02-05T00:31:17;4.88;;;0.90;;
30096;SDS011;16915;51.466;3.610;2023-02-05T00:33:45;3.03;;;0.80;;
30096;SDS011;16915;51.466;3.610;2023-02-05T00:36:11;2.45;;;0.65;;
30096;SDS011;16915;51.466;3.610;2023-02-05T00:38:37;4.43;;;1.08;;
30096;SDS011;16915;51.466;3.610;2023-02-05T00:41:03;2.40;;;0.73;;
30096;SDS011;16915;51.466;3.610;2023-02-05T00:43:29;1.20;;;0.80;;
30096;SDS011;16915;51.466;3.610;2023-02-05T00:45:55;2.30;;;0.77;;
30096;SDS011;16915;51.466;3.610;2023-02-05T00:48:20;2.33;;;0.60;;
30096;SDS011;16915;51.466;3.610;2023-02-05T00:50:47;1.75;;;0.88;;
30096;SDS011;16915;51.466;3.610;2023-02-05T00:53:13;3.58;;;0.60;;
30096;SDS011;16915;51.466;3.610;2023-02-05T00:55:39;3.65;;;0.80;;
30096;SDS011;16915;51.466;3.610;2023-02-05T00:58:05;3.50;;;0.70;;
30096;SDS011;16915;51.466;3.610;2023-02-05T01:00:30;1.95;;;0.80;;
30096;SDS011;16915;51.466;3.610;2023-02-05T01:02:57;2.58;;;1.00;;
30096;SDS011;16915;51.466;3.610;2023-02-05T01:05:23;2.83;;;0.80;;
30096;SDS011;16915;51.466;3.610;2023-02-05T01:07:48;2.92;;;1.00;;
30096;SDS011;16915;51.466;3.610;2023-02-05T01:10:14;4.68;;;1.23;;
30096;SDS011;16915;51.466;3.610;2023-02-05T01:12:39;2.17;;;0.73;;
30096;SDS011;16915;51.466;3.610;2023-02-05T01:15:05;4.35;;;1.05;;
30096;SDS011;16915;51.466;3.610;2023-02-05T01:17:32;6.68;;;0.88;;
30096;SDS011;16915;51.466;3.610;2023-02-05T01:19:57;7.55;;;0.90;;
30096;SDS011;16915;51.466;3.610;2023-02-05T01:22:23;1.45;;;0.60;;
30096;SDS011;16915;51.466;3.610;2023-02-05T01:24:48;2.03;;;0.68;;
30096;SDS011;16915;51.466;3.610;2023-02-05T01:27:14;4.72;;;0.82;;
30096;SDS011;16915;51.466;3.610;2023-02-05T01:29:40;1.98;;;0.85;;
30096;SDS011;16915;51.466;3.610;2023-02-05T01:32:05;2.13;;;0.88;;
30096;SDS011;16915;51.466;3.610;2023-02-05T01:34:31;3.70;;;0.95;;
30096;SDS011;16915;51.466;3.610;2023-02-05T01:36:56;2.08;;;0.70;;
30096;SDS011;16915;51.466;3.610;2023-02-05T01:39:22;5.43;;;1.00;;
30096;SDS011;16915;51.466;3.610;2023-02-05T01:41:47;3.15;;;1.25;;
30096;SDS011;16915;51.466;3.610;2023-02-05T01:44:18;3.65;;;1.00;;
30096;SDS011;16915;51.466;3.610;2023-02-05T01:46:50;5.50;;;1.33;;
30096;SDS011;16915;51.466;3.610;2023-02-05T01:49:24;3.20;;;1.05;;
30096;SDS011;16915;51.466;3.610;2023-02-05T01:51:54;2.25;;;1.35;;
30096;SDS011;16915;51.466;3.610;2023-02-05T01:54:24;5.03;;;1.40;;
30096;SDS011;16915;51.466;3.610;2023-02-05T01:56:53;5.70;;;1.83;;
30096;SDS011;16915;51.466;3.610;2023-02-05T01:59:22;7.97;;;2.30;;
30096;SDS011;16915;51.466;3.610;2023-02-05T02:01:51;9.38;;;2.22;;
30096;SDS011;16915;51.466;3.610;2023-02-05T02:04:20;6.78;;;2.45;;
30096;SDS011;16915;51.466;3.610;2023-02-05T02:07:06;9.45;;;2.33;;
30096;SDS011;16915;51.466;3.610;2023-02-05T02:09:33;4.65;;;2.55;;
30096;SDS011;16915;51.466;3.610;2023-02-05T02:11:59;10.02;;;2.60;;
30096;SDS011;16915;51.466;3.610;2023-02-05T02:14:26;7.43;;;2.70;;
30096;SDS011;16915;51.466;3.610;2023-02-05T02:16:54;9.50;;;2.95;;
30096;SDS011;16915;51.466;3.610;2023-02-05T02:25:30;6.50;;;2.92;;
30096;SDS011;16915;51.466;3.610;2023-02-05T02:28:33;10.52;;;3.58;;
30096;SDS011;16915;51.466;3.610;2023-02-05T02:31:08;6.60;;;3.47;;
30096;SDS011;16915;51.466;3.610;2023-02-05T02:44:22;8.15;;;3.90;;
30096;SDS011;16915;51.466;3.610;2023-02-05T02:46:54;5.85;;;3.35;;
30096;SDS011;16915;51.466;3.610;2023-02-05T02:49:24;6.90;;;3.35;;
30096;SDS011;16915;51.466;3.610;2023-02-05T02:51:56;9.82;;;3.45;;
30096;SDS011;16915;51.466;3.610;2023-02-05T02:54:24;10.85;;;3.35;;
30096;SDS011;16915;51.466;3.610;2023-02-05T02:56:51;7.28;;;3.58;;
30096;SDS011;16915;51.466;3.610;2023-02-05T02:59:19;9.07;;;3.75;;
30096;SDS011;16915;51.466;3.610;2023-02-05T03:01:48;10.18;;;4.20;;
30096;SDS011;16915;51.466;3.610;2023-02-05T03:04:29;9.45;;;4.40;;
30096;SDS011;16915;51.466;3.610;2023-02-05T03:07:09;6.32;;;3.50;;
30096;SDS011;16915;51.466;3.610;2023-02-05T03:09:40;7.28;;;3.78;;
30096;SDS011;16915;51.466;3.610;2023-02-05T03:12:09;7.75;;;3.78;;
30096;SDS011;16915;51.466;3.610;2023-02-05T03:14:35;15.40;;;3.75;;
30096;SDS011;16915;51.466;3.610;2023-02-05T03:17:01;9.93;;;3.97;;
30096;SDS011;16915;51.466;3.610;2023-02-05T03:19:27;9.43;;;3.70;;
30096;SDS011;16915;51.466;3.610;2023-02-05T03:21:54;12.60;;;3.80;;
30096;SDS011;16915;51.466;3.610;2023-02-05T03:24:24;9.77;;;3.78;;
30096;SDS011;16915;51.466;3.610;2023-02-05T03:26:50;8.48;;;3.78;;
30096;SDS011;16915;51.466;3.610;2023-02-05T03:29:17;14.48;;;4.18;;
30096;SDS011;16915;51.466;3.610;2023-02-05T03:40:16;11.88;;;3.88;;
30096;SDS011;16915;51.466;3.610;2023-02-05T03:45:38;13.90;;;4.95;;
30096;SDS011;16915;51.466;3.610;2023-02-05T03:53:33;10.95;;;5.35;;
30096;SDS011;16915;51.466;3.610;2023-02-05T03:56:03;13.48;;;5.45;;
30096;SDS011;16915;51.466;3.610;2023-02-05T03:58:51;17.30;;;6.18;;
30096;SDS011;16915;51.466;3.610;2023-02-05T04:01:18;9.30;;;5.63;;
30096;SDS011;16915;51.466;3.610;2023-02-05T04:03:44;9.32;;;5.90;;
30096;SDS011;16915;51.466;3.610;2023-02-05T04:06:10;12.00;;;6.07;;
30096;SDS011;16915;51.466;3.610;2023-02-05T04:08:37;10.38;;;6.78;;
30096;SDS011;16915;51.466;3.610;2023-02-05T04:11:02;13.98;;;6.07;;
30096;SDS011;16915;51.466;3.610;2023-02-05T04:13:28;14.88;;;6.45;;
30096;SDS011;16915;51.466;3.610;2023-02-05T04:15:54;13.90;;;6.78;;
30096;SDS011;16915;51.466;3.610;2023-02-05T04:18:19;13.43;;;6.78;;
30096;SDS011;16915;51.466;3.610;2023-02-05T04:20:45;17.05;;;6.80;;
30096;SDS011;16915;51.466;3.610;2023-02-05T04:23:11;11.30;;;6.90;;
30096;SDS011;16915;51.466;3.610;2023-02-05T04:25:37;11.32;;;6.57;;
30096;SDS011;16915;51.466;3.610;2023-02-05T04:28:03;12.98;;;6.15;;
30096;SDS011;16915;51.466;3.610;2023-02-05T04:30:30;8.95;;;6.05;;
30096;SDS011;16915;51.466;3.610;2023-02-05T04:32:56;11.88;;;5.55;;
30096;SDS011;16915;51.466;3.610;2023-02-05T04:35:22;7.22;;;4.13;;
30096;SDS011;16915;51.466;3.610;2023-02-05T04:37:47;8.10;;;3.42;;
30096;SDS011;16915;51.466;3.610;2023-02-05T04:40:13;13.95;;;3.03;;
30096;SDS011;16915;51.466;3.610;2023-02-05T04:42:39;7.68;;;2.13;;
30096;SDS011;16915;51.466;3.610;2023-02-05T04:45:05;11.38;;;2.92;;
30096;SDS011;16915;51.466;3.610;2023-02-05T04:47:31;11.98;;;1.10;;
30096;SDS011;16915;51.466;3.610;2023-02-05T04:49:57;10.77;;;1.63;;
30096;SDS011;16915;51.466;3.610;2023-02-05T04:52:23;4.50;;;1.40;;
30096;SDS011;16915;51.466;3.610;2023-02-05T04:54:48;7.22;;;1.02;;
30096;SDS011;16915;51.466;3.610;2023-02-05T04:57:14;2.70;;;1.08;;
30096;SDS011;16915;51.466;3.610;2023-02-05T04:59:40;8.88;;;1.10;;
30096;SDS011;16915;51.466;3.610;2023-02-05T05:02:07;9.65;;;1.10;;
30096;SDS011;16915;51.466;3.610;2023-02-05T05:04:33;8.95;;;1.02;;
30096;SDS011;16915;51.466;3.610;2023-02-05T05:06:59;6.97;;;0.90;;
30096;SDS011;16915;51.466;3.610;2023-02-05T05:09:25;15.50;;;1.50;;
30096;SDS011;16915;51.466;3.610;2023-02-05T05:11:51;11.05;;;2.53;;
30096;SDS011;16915;51.466;3.610;2023-02-05T05:14:17;12.25;;;1.83;;
30096;SDS011;16915;51.466;3.610;2023-02-05T05:16:42;19.67;;;1.80;;
30096;SDS011;16915;51.466;3.610;2023-02-05T05:19:08;15.82;;;1.65;;
30096;SDS011;16915;51.466;3.610;2023-02-05T05:21:33;15.70;;;2.05;;
30096;SDS011;16915;51.466;3.610;2023-02-05T05:23:59;15.77;;;2.55;;
30096;SDS011;16915;51.466;3.610;2023-02-05T05:26:25;17.88;;;2.78;;
30096;SDS011;16915;51.466;3.610;2023-02-05T05:28:54;15.38;;;1.77;;
30096;SDS011;16915;51.466;3.610;2023-02-05T05:31:21;11.40;;;1.38;;
30096;SDS011;16915;51.466;3.610;2023-02-05T05:33:47;13.50;;;1.73;;
30096;SDS011;16915;51.466;3.610;2023-02-05T05:36:13;16.67;;;1.75;;
30096;SDS011;16915;51.466;3.610;2023-02-05T05:38:40;6.85;;;1.38;;
30096;SDS011;16915;51.466;3.610;2023-02-05T05:41:05;15.15;;;1.48;;
30096;SDS011;16915;51.466;3.610;2023-02-05T05:43:53;8.48;;;0.70;;
30096;SDS011;16915;51.466;3.610;2023-02-05T05:46:23;8.93;;;0.82;;
30096;SDS011;16915;51.466;3.610;2023-02-05T05:48:50;5.43;;;0.77;;
30096;SDS011;16915;51.466;3.610;2023-02-05T05:51:18;7.03;;;1.02;;
30096;SDS011;16915;51.466;3.610;2023-02-05T05:53:44;10.15;;;1.00;;
30096;SDS011;16915;51.466;3.610;2023-02-05T05:56:10;12.77;;;1.45;;
30096;SDS011;16915;51.466;3.610;2023-02-05T05:58:37;9.00;;;1.10;;
30096;SDS011;16915;51.466;3.610;2023-02-05T06:01:03;5.07;;;1.55;;
30096;SDS011;16915;51.466;3.610;2023-02-05T06:03:30;11.07;;;1.38;;
30096;SDS011;16915;51.466;3.610;2023-02-05T06:05:55;7.13;;;1.40;;
30096;SDS011;16915;51.466;3.610;2023-02-05T06:08:23;13.25;;;1.38;;
30096;SDS011;16915;51.466;3.610;2023-02-05T06:10:49;11.25;;;1.63;;
30096;SDS011;16915;51.466;3.610;2023-02-05T06:13:14;14.00;;;1.35;;
30096;SDS011;16915;51.466;3.610;2023-02-05T06:15:40;11.10;;;0.88;;
30096;SDS011;16915;51.466;3.610;2023-02-05T06:18:05;8.95;;;1.30;;
30096;SDS011;16915;51.466;3.610;2023-02-05T06:20:31;9.25;;;1.27;;
30096;SDS011;16915;51.466;3.610;2023-02-05T06:22:56;13.75;;;1.45;;
30096;SDS011;16915;51.466;3.610;2023-02-05T06:25:22;11.10;;;1.23;;
30096;SDS011;16915;51.466;3.610;2023-02-05T06:27:48;9.75;;;1.70;;
30096;SDS011;16915;51.466;3.610;2023-02-05T06:30:13;13.82;;;1.17;;
30096;SDS011;16915;51.466;3.610;2023-02-05T06:32:39;17.08;;;2.05;;
30096;SDS011;16915;51.466;3.610;2023-02-05T06:35:04;10.65;;;1.52;;
30096;SDS011;16915;51.466;3.610;2023-02-05T06:37:30;15.15;;;1.38;;
30096;SDS011;16915;51.466;3.610;2023-02-05T06:39:56;15.27;;;1.58;;
30096;SDS011;16915;51.466;3.610;2023-02-05T06:42:21;13.70;;;1.75;;
30096;SDS011;16915;51.466;3.610;2023-02-05T06:44:47;8.27;;;1.27;;
30096;SDS011;16915;51.466;3.610;2023-02-05T06:47:13;13.00;;;1.50;;
30096;SDS011;16915;51.466;3.610;2023-02-05T06:49:38;8.60;;;1.13;;
30096;SDS011;16915;51.466;3.610;2023-02-05T06:52:04;10.20;;;1.08;;
30096;SDS011;16915;51.466;3.610;2023-02-05T06:54:30;15.32;;;1.85;;
30096;SDS011;16915;51.466;3.610;2023-02-05T06:56:56;13.05;;;1.92;;
30096;SDS011;16915;51.466;3.610;2023-02-05T06:59:21;18.15;;;2.05;;
30096;SDS011;16915;51.466;3.610;2023-02-05T07:01:47;18.92;;;2.40;;
30096;SDS011;16915;51.466;3.610;2023-02-05T07:04:13;19.98;;;2.53;;
30096;SDS011;16915;51.466;3.610;2023-02-05T07:06:38;8.88;;;1.88;;
30096;SDS011;16915;51.466;3.610;2023-02-05T07:09:04;15.25;;;1.67;;
30096;SDS011;16915;51.466;3.610;2023-02-05T07:11:29;14.82;;;1.35;;
30096;SDS011;16915;51.466;3.610;2023-02-05T07:13:55;11.25;;;1.70;;
30096;SDS011;16915;51.466;3.610;2023-02-05T07:16:20;13.98;;;2.50;;
30096;SDS011;16915;51.466;3.610;2023-02-05T07:18:46;11.85;;;1.55;;
30096;SDS011;16915;51.466;3.610;2023-02-05T07:21:13;18.00;;;2.33;;
30096;SDS011;16915;51.466;3.610;2023-02-05T07:23:40;9.15;;;1.50;;
30096;SDS011;16915;51.466;3.610;2023-02-05T07:26:10;17.25;;;1.95;;
30096;SDS011;16915;51.466;3.610;2023-02-05T07:28:40;10.02;;;1.75;;
30096;SDS011;16915;51.466;3.610;2023-02-05T07:31:07;11.73;;;1.83;;
30096;SDS011;16915;51.466;3.610;2023-02-05T07:33:34;17.58;;;2.22;;
30096;SDS011;16915;51.466;3.610;2023-02-05T07:36:03;17.75;;;3.08;;
30096;SDS011;16915;51.466;3.610;2023-02-05T07:38:30;18.92;;;2.15;;
30096;SDS011;16915;51.466;3.610;2023-02-05T07:40:56;12.07;;;1.90;;
30096;SDS011;16915;51.466;3.610;2023-02-05T07:43:22;19.60;;;2.10;;
30096;SDS011;16915;51.466;3.610;2023-02-05T07:45:54;16.30;;;2.35;;
30096;SDS011;16915;51.466;3.610;2023-02-05T07:48:23;13.48;;;2.08;;
30096;SDS011;16915;51.466;3.610;2023-02-05T07:50:49;15.15;;;2.10;;
30096;SDS011;16915;51.466;3.610;2023-02-05T07:53:15;16.00;;;2.28;;
30096;SDS011;16915;51.466;3.610;2023-02-05T07:55:41;17.13;;;2.33;;
30096;SDS011;16915;51.466;3.610;2023-02-05T07:58:06;16.70;;;1.77;;
30096;SDS011;16915;51.466;3.610;2023-02-05T08:00:32;18.55;;;1.77;;
30096;SDS011;16915;51.466;3.610;2023-02-05T08:02:58;20.33;;;1.95;;
30096;SDS011;16915;51.466;3.610;2023-02-05T08:05:24;26.15;;;3.05;;
30096;SDS011;16915;51.466;3.610;2023-02-05T08:07:50;13.93;;;1.70;;
30096;SDS011;16915;51.466;3.610;2023-02-05T08:10:15;18.38;;;2.30;;
30096;SDS011;16915;51.466;3.610;2023-02-05T08:12:41;17.27;;;2.45;;
30096;SDS011;16915;51.466;3.610;2023-02-05T08:15:06;15.73;;;2.38;;
30096;SDS011;16915;51.466;3.610;2023-02-05T08:17:32;15.60;;;2.28;;
30096;SDS011;16915;51.466;3.610;2023-02-05T08:19:58;27.92;;;3.58;;
30096;SDS011;16915;51.466;3.610;2023-02-05T08:22:30;21.80;;;3.15;;
30096;SDS011;16915;51.466;3.610;2023-02-05T08:24:58;16.05;;;2.92;;
30096;SDS011;16915;51.466;3.610;2023-02-05T08:27:23;13.05;;;2.42;;
30096;SDS011;16915;51.466;3.610;2023-02-05T08:29:49;15.15;;;2.28;;
30096;SDS011;16915;51.466;3.610;2023-02-05T08:32:14;15.55;;;3.08;;
30096;SDS011;16915;51.466;3.610;2023-02-05T08:34:40;17.92;;;2.15;;
30096;SDS011;16915;51.466;3.610;2023-02-05T08:37:05;16.73;;;2.60;;
30096;SDS011;16915;51.466;3.610;2023-02-05T08:39:31;22.55;;;2.80;;
30096;SDS011;16915;51.466;3.610;2023-02-05T08:41:56;23.70;;;3.15;;
30096;SDS011;16915;51.466;3.610;2023-02-05T08:44:22;19.15;;;2.03;;
30096;SDS011;16915;51.466;3.610;2023-02-05T08:46:48;24.85;;;2.65;;
30096;SDS011;16915;51.466;3.610;2023-02-05T08:49:13;13.35;;;2.05;;
30096;SDS011;16915;51.466;3.610;2023-02-05T08:51:40;22.55;;;2.78;;
30096;SDS011;16915;51.466;3.610;2023-02-05T08:54:07;19.20;;;2.20;;
30096;SDS011;16915;51.466;3.610;2023-02-05T08:56:37;18.40;;;2.47;;
30096;SDS011;16915;51.466;3.610;2023-02-05T08:59:04;19.30;;;2.20;;
30096;SDS011;16915;51.466;3.610;2023-02-05T09:01:29;18.60;;;1.98;;
30096;SDS011;16915;51.466;3.610;2023-02-05T09:03:56;18.50;;;2.33;;
30096;SDS011;16915;51.466;3.610;2023-02-05T09:06:22;13.18;;;2.08;;
30096;SDS011;16915;51.466;3.610;2023-02-05T09:08:47;16.25;;;2.88;;
30096;SDS011;16915;51.466;3.610;2023-02-05T09:11:13;18.23;;;2.33;;
30096;SDS011;16915;51.466;3.610;2023-02-05T09:13:45;16.38;;;2.95;;
30096;SDS011;16915;51.466;3.610;2023-02-05T09:16:10;16.73;;;2.47;;
30096;SDS011;16915;51.466;3.610;2023-02-05T09:18:36;13.88;;;2.45;;
30096;SDS011;16915;51.466;3.610;2023-02-05T09:21:04;26.08;;;3.03;;
30096;SDS011;16915;51.466;3.610;2023-02-05T09:23:31;17.23;;;2.50;;
30096;SDS011;16915;51.466;3.610;2023-02-05T09:25:57;21.42;;;2.75;;
30096;SDS011;16915;51.466;3.610;2023-02-05T09:28:23;20.27;;;2.88;;
30096;SDS011;16915;51.466;3.610;2023-02-05T09:30:49;11.25;;;2.35;;
30096;SDS011;16915;51.466;3.610;2023-02-05T09:33:15;23.48;;;2.72;;
30096;SDS011;16915;51.466;3.610;2023-02-05T09:35:41;19.10;;;2.67;;
30096;SDS011;16915;51.466;3.610;2023-02-05T09:38:07;15.80;;;2.42;;
30096;SDS011;16915;51.466;3.610;2023-02-05T09:40:40;18.45;;;2.67;;
30096;SDS011;16915;51.466;3.610;2023-02-05T09:43:20;16.25;;;2.15;;
30096;SDS011;16915;51.466;3.610;2023-02-05T09:46:07;20.33;;;2.63;;
30096;SDS011;16915;51.466;3.610;2023-02-05T09:49:01;26.20;;;2.75;;
30096;SDS011;16915;51.466;3.610;2023-02-05T09:51:37;18.13;;;2.35;;
30096;SDS011;16915;51.466;3.610;2023-02-05T09:54:21;21.98;;;2.85;;
30096;SDS011;16915;51.466;3.610;2023-02-05T09:56:49;17.50;;;2.38;;
30096;SDS011;16915;51.466;3.610;2023-02-05T09:59:21;18.90;;;2.53;;
30096;SDS011;16915;51.466;3.610;2023-02-05T10:01:54;16.55;;;3.65;;
30096;SDS011;16915;51.466;3.610;2023-02-05T10:04:22;14.60;;;2.08;;
30096;SDS011;16915;51.466;3.610;2023-02-05T10:26:43;17.50;;;2.28;;
30096;SDS011;16915;51.466;3.610;2023-02-05T10:29:15;17.20;;;3.08;;
30096;SDS011;16915;51.466;3.610;2023-02-05T10:32:05;16.58;;;2.38;;
30096;SDS011;16915;51.466;3.610;2023-02-05T10:38:02;22.08;;;2.47;;
30096;SDS011;16915;51.466;3.610;2023-02-05T10:40:36;24.50;;;3.30;;
30096;SDS011;16915;51.466;3.610;2023-02-05T10:45:51;18.45;;;2.05;;
30096;SDS011;16915;51.466;3.610;2023-02-05T10:53:33;19.65;;;2.88;;
30096;SDS011;16915;51.466;3.610;2023-02-05T10:56:00;21.42;;;2.67;;
30096;SDS011;16915;51.466;3.610;2023-02-05T11:01:05;20.45;;;3.05;;
30096;SDS011;16915;51.466;3.610;2023-02-05T11:03:35;21.38;;;3.88;;
30096;SDS011;16915;51.466;3.610;2023-02-05T11:06:02;18.58;;;2.97;;
30096;SDS011;16915;51.466;3.610;2023-02-05T11:11:02;15.95;;;2.60;;
30096;SDS011;16915;51.466;3.610;2023-02-05T11:13:29;20.20;;;2.50;;
30096;SDS011;16915;51.466;3.610;2023-02-05T11:15:57;10.00;;;1.52;;
30096;SDS011;16915;51.466;3.610;2023-02-05T11:18:29;11.75;;;2.30;;
30096;SDS011;16915;51.466;3.610;2023-02-05T11:21:01;16.60;;;2.42;;
30096;SDS011;16915;51.466;3.610;2023-02-05T11:23:28;23.45;;;2.53;;
30096;SDS011;16915;51.466;3.610;2023-02-05T11:25:59;19.17;;;3.13;;
30096;SDS011;16915;51.466;3.610;2023-02-05T11:28:32;18.33;;;2.30;;
30096;SDS011;16915;51.466;3.610;2023-02-05T11:36:33;15.15;;;2.38;;
30096;SDS011;16915;51.466;3.610;2023-02-05T11:39:01;18.73;;;2.72;;
30096;SDS011;16915;51.466;3.610;2023-02-05T11:43:56;19.25;;;2.33;;
30096;SDS011;16915;51.466;3.610;2023-02-05T11:46:25;18.40;;;3.65;;
30096;SDS011;16915;51.466;3.610;2023-02-05T11:48:59;13.40;;;3.03;;
30096;SDS011;16915;51.466;3.610;2023-02-05T11:51:47;11.95;;;2.28;;
30096;SDS011;16915;51.466;3.610;2023-02-05T11:59:41;24.95;;;2.67;;
30096;SDS011;16915;51.466;3.610;2023-02-05T12:04:47;18.40;;;2.55;;
30096;SDS011;16915;51.466;3.610;2023-02-05T12:07:14;22.40;;;2.35;;
30096;SDS011;16915;51.466;3.610;2023-02-05T12:09:43;21.33;;;3.03;;
30096;SDS011;16915;51.466;3.610;2023-02-05T12:12:21;17.77;;;2.35;;
30096;SDS011;16915;51.466;3.610;2023-02-05T12:18:02;30.50;;;4.10;;
30096;SDS011;16915;51.466;3.610;2023-02-05T12:23:40;23.23;;;2.92;;
30096;SDS011;16915;51.466;3.610;2023-02-05T12:26:31;18.52;;;2.65;;
30096;SDS011;16915;51.466;3.610;2023-02-05T12:31:39;15.63;;;2.88;;
30096;SDS011;16915;51.466;3.610;2023-02-05T12:42:28;16.90;;;2.35;;
30096;SDS011;16915;51.466;3.610;2023-02-05T12:53:12;14.35;;;2.42;;
30096;SDS011;16915;51.466;3.610;2023-02-05T12:56:00;14.23;;;2.35;;
30096;SDS011;16915;51.466;3.610;2023-02-05T12:58:49;18.60;;;2.58;;
30096;SDS011;16915;51.466;3.610;2023-02-05T13:01:20;19.45;;;2.85;;
30096;SDS011;16915;51.466;3.610;2023-02-05T13:03:54;10.93;;;2.13;;
30096;SDS011;16915;51.466;3.610;2023-02-05T13:06:25;21.23;;;2.53;;
30096;SDS011;16915;51.466;3.610;2023-02-05T13:09:04;17.60;;;2.58;;
30096;SDS011;16915;51.466;3.610;2023-02-05T13:11:52;20.27;;;2.47;;
30096;SDS011;16915;51.466;3.610;2023-02-05T13:16:56;18.48;;;2.65;;
30096;SDS011;16915;51.466;3.610;2023-02-05T13:19:37;27.70;;;2.78;;
30096;SDS011;16915;51.466;3.610;2023-02-05T13:22:26;20.48;;;2.53;;
30096;SDS011;16915;51.466;3.610;2023-02-05T13:33:50;16.33;;;2.25;;
30096;SDS011;16915;51.466;3.610;2023-02-05T13:47:25;15.85;;;2.53;;
30096;SDS011;16915;51.466;3.610;2023-02-05T13:53:02;22.05;;;2.50;;
30096;SDS011;16915;51.466;3.610;2023-02-05T14:00:39;15.50;;;2.10;;
30096;SDS011;16915;51.466;3.610;2023-02-05T14:03:08;9.60;;;2.28;;
30096;SDS011;16915;51.466;3.610;2023-02-05T14:05:44;13.15;;;2.13;;
30096;SDS011;16915;51.466;3.610;2023-02-05T14:08:20;21.00;;;2.40;;
30096;SDS011;16915;51.466;3.610;2023-02-05T14:11:22;23.38;;;2.45;;
30096;SDS011;16915;51.466;3.610;2023-02-05T14:13:43;18.80;;;2.95;;
30096;SDS011;16915;51.466;3.610;2023-02-05T14:16:44;18.83;;;1.77;;
30096;SDS011;16915;51.466;3.610;2023-02-05T14:26:51;30.23;;;2.83;;
30096;SDS011;16915;51.466;3.610;2023-02-05T14:29:40;19.98;;;2.78;;
30096;SDS011;16915;51.466;3.610;2023-02-05T14:32:11;18.27;;;2.88;;
30096;SDS011;16915;51.466;3.610;2023-02-05T14:35:00;29.13;;;2.95;;
30096;SDS011;16915;51.466;3.610;2023-02-05T14:37:45;20.83;;;2.80;;
30096;SDS011;16915;51.466;3.610;2023-02-05T14:43:03;14.63;;;2.60;;
30096;SDS011;16915;51.466;3.610;2023-02-05T14:45:45;11.88;;;2.15;;
30096;SDS011;16915;51.466;3.610;2023-02-05T14:48:20;21.33;;;2.63;;
30096;SDS011;16915;51.466;3.610;2023-02-05T14:51:03;19.90;;;2.60;;
30096;SDS011;16915;51.466;3.610;2023-02-05T14:53:58;15.77;;;3.00;;
30096;SDS011;16915;51.466;3.610;2023-02-05T14:56:39;19.90;;;2.58;;
30096;SDS011;16915;51.466;3.610;2023-02-05T14:59:19;20.83;;;2.65;;
30096;SDS011;16915;51.466;3.610;2023-02-05T15:01:53;15.85;;;2.83;;
30096;SDS011;16915;51.466;3.610;2023-02-05T15:09:18;16.60;;;2.35;;
30096;SDS011;16915;51.466;3.610;2023-02-05T15:14:39;19.48;;;2.45;;
30096;SDS011;16915;51.466;3.610;2023-02-05T15:19:42;29.15;;;3.35;;
30096;SDS011;16915;51.466;3.610;2023-02-05T15:22:33;26.92;;;3.58;;
30096;SDS011;16915;51.466;3.610;2023-02-05T15:25:03;17.50;;;3.58;;
30096;SDS011;16915;51.466;3.610;2023-02-05T15:27:41;32.47;;;3.55;;
30096;SDS011;16915;51.466;3.610;2023-02-05T15:30:13;19.83;;;3.25;;
30096;SDS011;16915;51.466;3.610;2023-02-05T15:35:18;27.58;;;3.50;;
30096;SDS011;16915;51.466;3.610;2023-02-05T15:37:55;20.88;;;2.72;;
30096;SDS011;16915;51.466;3.610;2023-02-05T15:40:30;26.10;;;2.90;;
30096;SDS011;16915;51.466;3.610;2023-02-05T15:45:26;32.40;;;3.35;;
30096;SDS011;16915;51.466;3.610;2023-02-05T15:50:53;24.48;;;2.63;;
30096;SDS011;16915;51.466;3.610;2023-02-05T15:56:27;25.55;;;3.03;;
30096;SDS011;16915;51.466;3.610;2023-02-05T15:59:32;21.77;;;3.03;;
30096;SDS011;16915;51.466;3.610;2023-02-05T16:02:00;22.55;;;2.92;;
30096;SDS011;16915;51.466;3.610;2023-02-05T16:04:36;22.70;;;2.80;;
30096;SDS011;16915;51.466;3.610;2023-02-05T16:07:15;26.23;;;3.53;;
30096;SDS011;16915;51.466;3.610;2023-02-05T16:09:50;30.15;;;3.83;;
30096;SDS011;16915;51.466;3.610;2023-02-05T16:12:17;27.80;;;3.20;;
30096;SDS011;16915;51.466;3.610;2023-02-05T16:14:43;35.22;;;3.90;;
30096;SDS011;16915;51.466;3.610;2023-02-05T16:17:18;35.38;;;3.33;;
30096;SDS011;16915;51.466;3.610;2023-02-05T16:19:50;24.55;;;3.45;;
30096;SDS011;16915;51.466;3.610;2023-02-05T16:25:00;17.80;;;2.83;;
30096;SDS011;16915;51.466;3.610;2023-02-05T16:27:32;21.73;;;3.08;;
30096;SDS011;16915;51.466;3.610;2023-02-05T16:30:06;30.98;;;3.00;;
30096;SDS011;16915;51.466;3.610;2023-02-05T16:32:40;19.23;;;3.15;;
30096;SDS011;16915;51.466;3.610;2023-02-05T16:35:07;21.90;;;3.78;;
30096;SDS011;16915;51.466;3.610;2023-02-05T16:37:57;35.50;;;3.00;;
30096;SDS011;16915;51.466;3.610;2023-02-05T16:40:33;23.45;;;3.72;;
30096;SDS011;16915;51.466;3.610;2023-02-05T16:43:15;26.42;;;3.30;;
30096;SDS011;16915;51.466;3.610;2023-02-05T16:48:32;29.05;;;3.38;;
30096;SDS011;16915;51.466;3.610;2023-02-05T16:51:00;22.00;;;2.88;;
30096;SDS011;16915;51.466;3.610;2023-02-05T16:53:28;22.45;;;3.42;;
30096;SDS011;16915;51.466;3.610;2023-02-05T16:55:55;24.17;;;3.33;;
30096;SDS011;16915;51.466;3.610;2023-02-05T16:58:27;28.92;;;3.72;;
30096;SDS011;16915;51.466;3.610;2023-02-05T17:01:01;22.63;;;3.97;;
30096;SDS011;16915;51.466;3.610;2023-02-05T17:03:30;21.10;;;3.45;;
30096;SDS011;16915;51.466;3.610;2023-02-05T17:05:59;14.48;;;2.95;;
30096;SDS011;16915;51.466;3.610;2023-02-05T17:08:29;30.33;;;3.88;;
30096;SDS011;16915;51.466;3.610;2023-02-05T17:10:58;27.00;;;3.55;;
30096;SDS011;16915;51.466;3.610;2023-02-05T17:16:18;25.77;;;3.85;;
30096;SDS011;16915;51.466;3.610;2023-02-05T17:18:52;18.65;;;2.78;;
30096;SDS011;16915;51.466;3.610;2023-02-05T17:21:21;17.80;;;2.80;;
30096;SDS011;16915;51.466;3.610;2023-02-05T17:23:55;24.55;;;3.58;;
30096;SDS011;16915;51.466;3.610;2023-02-05T17:26:23;22.27;;;3.10;;
30096;SDS011;16915;51.466;3.610;2023-02-05T17:28:52;26.65;;;2.55;;
30096;SDS011;16915;51.466;3.610;2023-02-05T17:31:20;25.30;;;3.35;;
30096;SDS011;16915;51.466;3.610;2023-02-05T17:33:50;16.48;;;2.38;;
30096;SDS011;16915;51.466;3.610;2023-02-05T17:36:17;19.60;;;2.97;;
30096;SDS011;16915;51.466;3.610;2023-02-05T17:38:43;24.45;;;3.20;;
30096;SDS011;16915;51.466;3.610;2023-02-05T17:41:16;28.17;;;3.30;;
30096;SDS011;16915;51.466;3.610;2023-02-05T17:44:09;32.08;;;3.70;;
30096;SDS011;16915;51.466;3.610;2023-02-05T17:46:36;27.23;;;3.30;;
30096;SDS011;16915;51.466;3.610;2023-02-05T17:49:02;21.38;;;3.50;;
30096;SDS011;16915;51.466;3.610;2023-02-05T17:51:28;22.08;;;3.67;;
30096;SDS011;16915;51.466;3.610;2023-02-05T17:53:54;18.25;;;2.53;;
30096;SDS011;16915;51.466;3.610;2023-02-05T17:56:20;19.50;;;2.45;;